Time;durP1;ratioP1;P1;durP2;ratioP2;P2;SDS_P1;SDS_P2;PMS_P1;PMS_P2;Temp;Humidity;BMP_temperature;BMP_pressure;BME280_temperature;BME280_humidity;BME280_pressure;Samples;Min_cycle;Max_cycle;Signal;HPM_P1;HPM_P2
2024/04/17 00:00:34;;;;;;;13.65;4.78;;;;;;;;;;8277362;21;20010;-72
2024/04/17 00:03:37;;;;;;;9.57;4.18;;;;;;;;;;8277285;21;20624;-72
2024/04/17 00:06:40;;;;;;;10.25;3.35;;;;;;;;;;8277778;21;20019;-71
2024/04/17 00:09:42;;;;;;;9.27;3.63;;;;;;;;;;8233494;21;19995;-72
2024/04/17 00:12:45;;;;;;;9.25;4.07;;;;;;;;;;8278307;21;19995;-72
2024/04/17 00:15:47;;;;;;;7.60;3.67;;;;;;;;;;8281471;21;20007;-72
2024/04/17 00:18:50;;;;;;;12.45;8.40;;;;;;;;;;8283276;21;19995;-72
2024/04/17 00:21:53;;;;;;;10.13;6.40;;;;;;;;;;8282632;21;20462;-72
2024/04/17 00:24:55;;;;;;;9.90;4.10;;;;;;;;;;8282551;21;20035;-74
2024/04/17 00:27:58;;;;;;;14.50;4.22;;;;;;;;;;8282409;21;20731;-72
2024/04/17 00:31:00;;;;;;;11.07;4.25;;;;;;;;;;8281451;21;20010;-72
2024/04/17 00:34:04;;;;;;;8.93;4.10;;;;;;;;;;8281361;21;20002;-72
2024/04/17 00:37:07;;;;;;;12.02;4.80;;;;;;;;;;8280717;21;20015;-72
2024/04/17 00:40:10;;;;;;;7.38;4.05;;;;;;;;;;8283027;21;20006;-72
2024/04/17 00:43:12;;;;;;;8.52;4.60;;;;;;;;;;8280979;21;20003;-72
2024/04/17 00:46:15;;;;;;;11.45;4.35;;;;;;;;;;8283085;21;20409;-72
2024/04/17 00:49:19;;;;;;;11.02;4.88;;;;;;;;;;8282866;21;20018;-72
2024/04/17 00:52:22;;;;;;;12.70;5.10;;;;;;;;;;8283065;21;20007;-72
2024/04/17 00:55:24;;;;;;;10.43;4.82;;;;;;;;;;8280893;21;20017;-72
2024/04/17 00:58:27;;;;;;;11.98;4.53;;;;;;;;;;8281577;21;20003;-72
2024/04/17 01:01:30;;;;;;;9.40;4.63;;;;;;;;;;8280574;21;20053;-72
2024/04/17 01:04:32;;;;;;;11.75;4.60;;;;;;;;;;8280549;21;19991;-72
2024/04/17 01:07:37;;;;;;;10.57;4.22;;;;;;;;;;8282338;21;20002;-72
2024/04/17 01:10:39;;;;;;;11.07;5.22;;;;;;;;;;8279874;21;20069;-72
2024/04/17 01:13:42;;;;;;;9.63;4.93;;;;;;;;;;8280561;21;20019;-72
2024/04/17 01:16:44;;;;;;;12.48;4.47;;;;;;;;;;8281751;21;19999;-73
2024/04/17 01:19:47;;;;;;;10.85;4.18;;;;;;;;;;8234446;21;20043;-72
2024/04/17 01:22:50;;;;;;;11.73;6.05;;;;;;;;;;8280424;21;20093;-73
2024/04/17 01:25:53;;;;;;;12.50;4.93;;;;;;;;;;8279113;21;20040;-72
2024/04/17 01:28:55;;;;;;;9.85;3.80;;;;;;;;;;8235886;21;20003;-72
2024/04/17 01:31:58;;;;;;;12.40;5.30;;;;;;;;;;8280770;21;20543;-73
2024/04/17 01:35:00;;;;;;;10.95;4.07;;;;;;;;;;8279578;21;20035;-72
2024/04/17 01:38:04;;;;;;;8.05;4.03;;;;;;;;;;8277369;21;20006;-72
2024/04/17 01:41:07;;;;;;;14.27;6.75;;;;;;;;;;8280200;21;20466;-72
2024/04/17 01:44:09;;;;;;;13.82;4.70;;;;;;;;;;8281485;21;20003;-72
2024/04/17 01:47:12;;;;;;;8.52;4.80;;;;;;;;;;8282612;21;20014;-72
2024/04/17 01:50:26;;;;;;;13.27;4.13;;;;;;;;;;8280370;21;19999;-73
2024/04/17 01:53:29;;;;;;;12.30;5.25;;;;;;;;;;8282902;21;20768;-73
2024/04/17 01:56:31;;;;;;;9.02;7.25;;;;;;;;;;8280576;21;20469;-73
2024/04/17 01:59:34;;;;;;;9.80;4.25;;;;;;;;;;8282545;21;20010;-73
2024/04/17 02:02:36;;;;;;;12.27;5.28;;;;;;;;;;8279959;21;20534;-73
2024/04/17 02:05:39;;;;;;;9.38;4.32;;;;;;;;;;8232619;21;20100;-73
2024/04/17 02:08:42;;;;;;;11.93;4.22;;;;;;;;;;8189830;21;20515;-73
2024/04/17 02:11:45;;;;;;;8.05;4.20;;;;;;;;;;8281023;21;19995;-73
2024/04/17 02:14:47;;;;;;;7.80;4.68;;;;;;;;;;8281456;21;20428;-74
2024/04/17 02:17:50;;;;;;;9.18;7.20;;;;;;;;;;8279315;21;20543;-72
2024/04/17 02:20:53;;;;;;;11.77;4.00;;;;;;;;;;8235983;21;20738;-73
2024/04/17 02:23:55;;;;;;;13.02;5.75;;;;;;;;;;8283007;21;20015;-72
2024/04/17 02:26:58;;;;;;;10.60;5.30;;;;;;;;;;8283059;21;20039;-73
2024/04/17 02:30:02;;;;;;;10.75;4.75;;;;;;;;;;8279803;21;20015;-73
2024/04/17 02:33:05;;;;;;;14.77;6.43;;;;;;;;;;8278338;21;19999;-73
2024/04/17 02:36:08;;;;;;;10.38;5.03;;;;;;;;;;8282011;21;20015;-74
2024/04/17 02:39:10;;;;;;;14.10;4.55;;;;;;;;;;8278552;21;20022;-73
2024/04/17 02:42:13;;;;;;;9.52;3.67;;;;;;;;;;8278651;21;20581;-73
2024/04/17 02:45:16;;;;;;;13.60;4.35;;;;;;;;;;8280205;21;19999;-72
2024/04/17 02:48:18;;;;;;;12.45;5.63;;;;;;;;;;8280621;21;19994;-73
2024/04/17 02:51:21;;;;;;;10.95;5.03;;;;;;;;;;8281684;21;20003;-73
2024/04/17 02:54:23;;;;;;;11.73;5.03;;;;;;;;;;8280222;21;20469;-72
2024/04/17 02:57:26;;;;;;;9.35;5.07;;;;;;;;;;8235389;21;20043;-72
2024/04/17 03:00:29;;;;;;;11.77;4.47;;;;;;;;;;8280196;21;20014;-73
2024/04/17 03:03:32;;;;;;;9.52;4.45;;;;;;;;;;8280482;21;19998;-73
2024/04/17 03:06:34;;;;;;;10.52;4.63;;;;;;;;;;8281882;21;19999;-73
2024/04/17 03:09:37;;;;;;;13.85;4.75;;;;;;;;;;8280219;21;20068;-73
2024/04/17 03:12:40;;;;;;;13.38;4.68;;;;;;;;;;8280199;21;20448;-73
2024/04/17 03:15:42;;;;;;;9.68;4.63;;;;;;;;;;8278986;21;20002;-73
2024/04/17 03:18:48;;;;;;;8.98;5.93;;;;;;;;;;8282066;21;20019;-73
2024/04/17 03:21:50;;;;;;;7.30;3.75;;;;;;;;;;8280012;21;19991;-73
2024/04/17 03:24:53;;;;;;;10.63;4.95;;;;;;;;;;8282628;21;20011;-72
2024/04/17 03:27:56;;;;;;;8.30;5.50;;;;;;;;;;8282187;21;20043;-73
2024/04/17 03:31:01;;;;;;;7.63;4.10;;;;;;;;;;8279397;21;20335;-73
2024/04/17 03:34:04;;;;;;;12.65;4.55;;;;;;;;;;8280546;21;20401;-73
2024/04/17 03:37:06;;;;;;;12.00;3.47;;;;;;;;;;8279040;21;20009;-73
2024/04/17 03:40:09;;;;;;;9.02;4.30;;;;;;;;;;8279919;21;20547;-72
2024/04/17 03:43:12;;;;;;;12.88;4.68;;;;;;;;;;8278369;21;20531;-72
2024/04/17 03:46:14;;;;;;;10.93;3.83;;;;;;;;;;8278255;21;20006;-73
2024/04/17 03:49:17;;;;;;;5.63;3.60;;;;;;;;;;8281096;21;20007;-72
2024/04/17 03:52:20;;;;;;;6.95;3.92;;;;;;;;;;8194101;21;20010;-73
2024/04/17 03:55:22;;;;;;;12.90;3.65;;;;;;;;;;8285056;21;19995;-73
2024/04/17 03:58:25;;;;;;;9.15;3.63;;;;;;;;;;8285381;21;20550;-73
2024/04/17 04:01:28;;;;;;;8.55;3.97;;;;;;;;;;8237846;21;20840;-72
2024/04/17 04:04:30;;;;;;;11.48;5.22;;;;;;;;;;8283890;21;20780;-74
2024/04/17 04:07:33;;;;;;;7.45;3.33;;;;;;;;;;8282543;21;20441;-73
2024/04/17 04:10:36;;;;;;;10.18;3.90;;;;;;;;;;8284113;21;20010;-72
2024/04/17 04:13:39;;;;;;;9.40;4.03;;;;;;;;;;8283878;21;20014;-72
2024/04/17 04:16:41;;;;;;;9.30;4.13;;;;;;;;;;8278160;21;19995;-73
2024/04/17 04:19:45;;;;;;;8.20;3.83;;;;;;;;;;8280031;21;20068;-73
2024/04/17 04:22:47;;;;;;;10.75;5.55;;;;;;;;;;8282150;21;20911;-73
2024/04/17 04:25:50;;;;;;;8.50;4.15;;;;;;;;;;8281428;21;20035;-73
2024/04/17 04:28:53;;;;;;;7.30;3.88;;;;;;;;;;8280138;21;19999;-73
2024/04/17 04:31:55;;;;;;;9.50;3.97;;;;;;;;;;8280440;21;19995;-73
2024/04/17 04:34:58;;;;;;;12.88;4.03;;;;;;;;;;8283314;21;20010;-72
2024/04/17 04:38:00;;;;;;;12.00;5.25;;;;;;;;;;8279414;21;20009;-73
2024/04/17 04:41:03;;;;;;;10.07;4.50;;;;;;;;;;8279404;21;19995;-73
2024/04/17 04:44:06;;;;;;;8.90;3.60;;;;;;;;;;8279289;21;20418;-73
2024/04/17 04:47:08;;;;;;;9.50;4.25;;;;;;;;;;8233860;21;20010;-73
2024/04/17 04:50:11;;;;;;;10.43;3.38;;;;;;;;;;8282150;21;20009;-73
2024/04/17 04:53:13;;;;;;;5.05;2.10;;;;;;;;;;8279062;21;19995;-73
2024/04/17 04:56:16;;;;;;;10.18;2.80;;;;;;;;;;8278934;21;20013;-73
2024/04/17 04:59:19;;;;;;;9.13;3.17;;;;;;;;;;8279420;21;20069;-73
2024/04/17 05:02:21;;;;;;;11.85;2.70;;;;;;;;;;8280203;21;20331;-72
2024/04/17 05:05:24;;;;;;;6.32;2.42;;;;;;;;;;8281246;21;20011;-72
2024/04/17 05:08:26;;;;;;;11.20;2.88;;;;;;;;;;8279006;21;20010;-73
2024/04/17 05:11:29;;;;;;;7.35;2.53;;;;;;;;;;8280857;21;19995;-73
2024/04/17 05:14:32;;;;;;;8.52;2.95;;;;;;;;;;8278890;21;20547;-74
2024/04/17 05:17:34;;;;;;;9.57;3.70;;;;;;;;;;8233593;21;20435;-73
2024/04/17 05:20:37;;;;;;;9.00;3.50;;;;;;;;;;8274742;21;20756;-73
2024/04/17 05:23:40;;;;;;;10.38;2.92;;;;;;;;;;8274216;21;19995;-72
2024/04/17 05:26:43;;;;;;;11.98;4.28;;;;;;;;;;8185610;21;20379;-73
2024/04/17 05:29:46;;;;;;;5.25;3.28;;;;;;;;;;8276988;21;19995;-72
2024/04/17 05:32:49;;;;;;;5.57;2.90;;;;;;;;;;8274245;21;20015;-72
2024/04/17 05:35:52;;;;;;;7.53;2.25;;;;;;;;;;8228146;21;20003;-73
2024/04/17 05:38:54;;;;;;;11.77;2.97;;;;;;;;;;8276851;21;19999;-73
2024/04/17 05:41:58;;;;;;;13.10;2.95;;;;;;;;;;8272609;21;20009;-72
2024/04/17 05:45:01;;;;;;;6.45;3.33;;;;;;;;;;8274945;21;20006;-72
2024/04/17 05:48:04;;;;;;;12.32;3.75;;;;;;;;;;8273678;21;19995;-72
2024/04/17 05:51:06;;;;;;;6.82;2.97;;;;;;;;;;8278558;21;19999;-73
2024/04/17 05:54:10;;;;;;;8.40;2.50;;;;;;;;;;8279843;21;20010;-72
2024/04/17 05:57:13;;;;;;;8.38;3.47;;;;;;;;;;8281316;21;20943;-72
2024/04/17 06:00:17;;;;;;;9.82;4.60;;;;;;;;;;8281360;21;20141;-72
2024/04/17 06:03:20;;;;;;;10.73;6.75;;;;;;;;;;8280170;21;20693;-73
2024/04/17 06:06:22;;;;;;;7.70;2.97;;;;;;;;;;8279940;21;20035;-72
2024/04/17 06:09:25;;;;;;;4.90;2.53;;;;;;;;;;8278941;21;20590;-73
2024/04/17 06:12:27;;;;;;;7.93;2.72;;;;;;;;;;8279438;21;19991;-73
2024/04/17 06:15:30;;;;;;;13.10;3.42;;;;;;;;;;8234818;21;20047;-73
2024/04/17 06:18:33;;;;;;;19.55;10.20;;;;;;;;;;8279991;21;19999;-73
2024/04/17 06:21:36;;;;;;;16.25;8.73;;;;;;;;;;8278376;21;20003;-73
2024/04/17 06:24:39;;;;;;;14.55;6.68;;;;;;;;;;8280768;21;20010;-73
2024/04/17 06:27:41;;;;;;;5.32;2.78;;;;;;;;;;8234687;21;20013;-73
2024/04/17 06:30:44;;;;;;;4.68;2.22;;;;;;;;;;8278289;21;20486;-74
2024/04/17 06:33:47;;;;;;;8.10;5.20;;;;;;;;;;8280512;21;20287;-72
2024/04/17 06:36:50;;;;;;;8.82;3.10;;;;;;;;;;8279891;21;20081;-73
2024/04/17 06:39:53;;;;;;;10.48;5.70;;;;;;;;;;8279946;21;20092;-73
2024/04/17 06:42:55;;;;;;;7.18;5.10;;;;;;;;;;8278175;21;20003;-73
2024/04/17 06:45:58;;;;;;;6.68;5.00;;;;;;;;;;8276977;21;19995;-72
2024/04/17 06:49:01;;;;;;;8.50;3.75;;;;;;;;;;8277500;21;20736;-72
2024/04/17 06:52:04;;;;;;;10.70;4.72;;;;;;;;;;8233794;21;20007;-72
2024/04/17 06:55:07;;;;;;;6.57;3.55;;;;;;;;;;8234033;21;20466;-73
2024/04/17 06:58:09;;;;;;;6.97;2.63;;;;;;;;;;8280258;21;20041;-72
2024/04/17 07:01:13;;;;;;;9.20;4.40;;;;;;;;;;8277463;21;20817;-73
2024/04/17 07:04:15;;;;;;;9.85;5.63;;;;;;;;;;8276273;21;20003;-73
2024/04/17 07:07:18;;;;;;;8.30;3.42;;;;;;;;;;8277540;21;19991;-72
2024/04/17 07:10:21;;;;;;;7.13;2.65;;;;;;;;;;8277857;21;20430;-72
2024/04/17 07:13:24;;;;;;;10.07;4.18;;;;;;;;;;8277617;21;20434;-72
2024/04/17 07:16:27;;;;;;;8.93;4.07;;;;;;;;;;8278299;21;19999;-72
2024/04/17 07:19:29;;;;;;;9.27;4.32;;;;;;;;;;8281069;21;19994;-73
2024/04/17 07:22:35;;;;;;;9.02;4.18;;;;;;;;;;8281242;21;20015;-73
2024/04/17 07:25:37;;;;;;;9.00;2.92;;;;;;;;;;8234164;21;20423;-72
2024/04/17 07:28:40;;;;;;;7.35;2.53;;;;;;;;;;8281511;21;20018;-73
2024/04/17 07:31:43;;;;;;;8.88;4.70;;;;;;;;;;8281376;21;19995;-73
2024/04/17 07:34:46;;;;;;;8.25;3.63;;;;;;;;;;8282220;21;20011;-73
2024/04/17 07:37:48;;;;;;;9.23;4.70;;;;;;;;;;8279753;21;20336;-73
2024/04/17 07:40:58;;;;;;;3.90;2.80;;;;;;;;;;8281917;21;20300;-72
2024/04/17 07:44:01;;;;;;;5.72;2.45;;;;;;;;;;8279221;21;20069;-72
2024/04/17 07:47:03;;;;;;;3.92;2.10;;;;;;;;;;8279582;21;20010;-72
2024/04/17 07:50:06;;;;;;;2.92;0.82;;;;;;;;;;8278749;21;20010;-73
2024/04/17 07:53:09;;;;;;;3.00;1.05;;;;;;;;;;8279431;21;20010;-72
2024/04/17 07:56:12;;;;;;;3.78;3.25;;;;;;;;;;8281738;21;20657;-72
2024/04/17 07:59:15;;;;;;;2.13;1.10;;;;;;;;;;8281635;21;20045;-73
2024/04/17 08:02:18;;;;;;;2.92;1.20;;;;;;;;;;8280948;21;20538;-72
2024/04/17 08:05:21;;;;;;;2.25;0.82;;;;;;;;;;8278615;21;19995;-73
2024/04/17 08:08:23;;;;;;;5.38;1.63;;;;;;;;;;8280413;21;20371;-73
2024/04/17 08:11:28;;;;;;;2.65;1.10;;;;;;;;;;8280246;21;20006;-73
2024/04/17 08:14:34;;;;;;;2.20;1.38;;;;;;;;;;8237854;21;19995;-73
2024/04/17 08:17:37;;;;;;;1.63;0.95;;;;;;;;;;8235087;21;20005;-73
2024/04/17 08:20:40;;;;;;;3.40;1.80;;;;;;;;;;8278299;21;20011;-73
2024/04/17 08:23:43;;;;;;;2.92;0.90;;;;;;;;;;8233204;21;19995;-73
2024/04/17 08:26:45;;;;;;;4.00;0.60;;;;;;;;;;8277857;21;20051;-73
2024/04/17 08:29:48;;;;;;;3.38;1.45;;;;;;;;;;8279195;21;20350;-73
2024/04/17 08:32:50;;;;;;;2.70;1.52;;;;;;;;;;8233362;21;20007;-74
2024/04/17 08:35:53;;;;;;;4.85;1.60;;;;;;;;;;8187112;21;19995;-73
2024/04/17 08:38:56;;;;;;;5.63;2.10;;;;;;;;;;8279509;21;19995;-73
2024/04/17 08:42:05;;;;;;;5.43;2.47;;;;;;;;;;8279312;21;20010;-74
2024/04/17 08:45:09;;;;;;;4.35;1.40;;;;;;;;;;8278845;21;20013;-74
2024/04/17 08:48:11;;;;;;;2.88;0.95;;;;;;;;;;8281529;21;20010;-73
2024/04/17 08:51:14;;;;;;;3.22;1.55;;;;;;;;;;8234780;21;20007;-72
2024/04/17 08:54:17;;;;;;;4.32;1.80;;;;;;;;;;8190134;21;20007;-73
2024/04/17 08:57:20;;;;;;;3.55;2.17;;;;;;;;;;8190139;21;19991;-73
2024/04/17 09:00:27;;;;;;;6.93;2.45;;;;;;;;;;8278776;21;20013;-73
2024/04/17 09:03:30;;;;;;;4.63;1.35;;;;;;;;;;8279489;21;19995;-73
2024/04/17 09:06:33;;;;;;;5.25;2.28;;;;;;;;;;8279443;21;19999;-73
2024/04/17 09:09:40;;;;;;;4.03;1.33;;;;;;;;;;8233788;21;19991;-73
2024/04/17 09:12:44;;;;;;;2.53;1.30;;;;;;;;;;8276366;21;20354;-73
2024/04/17 09:15:47;;;;;;;2.60;1.00;;;;;;;;;;8191435;21;20010;-73
2024/04/17 09:18:50;;;;;;;3.65;3.35;;;;;;;;;;8282061;21;20677;-73
2024/04/17 09:21:53;;;;;;;5.03;1.40;;;;;;;;;;8281102;21;19999;-72
2024/04/17 09:24:56;;;;;;;5.32;2.10;;;;;;;;;;8277923;21;19995;-73
2024/04/17 09:27:58;;;;;;;3.75;1.00;;;;;;;;;;8277957;21;20076;-72
2024/04/17 09:31:05;;;;;;;4.22;1.63;;;;;;;;;;8280518;21;20007;-74
2024/04/17 09:34:08;;;;;;;8.05;3.63;;;;;;;;;;8279646;21;19999;-73
2024/04/17 09:37:12;;;;;;;5.53;2.03;;;;;;;;;;8236529;21;20003;-73
2024/04/17 09:40:15;;;;;;;5.90;2.10;;;;;;;;;;8279015;21;20007;-73
2024/04/17 09:43:27;;;;;;;3.95;1.33;;;;;;;;;;8280140;21;20005;-73
2024/04/17 09:46:32;;;;;;;1.98;0.88;;;;;;;;;;8234060;21;19991;-73
2024/04/17 09:49:44;;;;;;;2.92;1.35;;;;;;;;;;8191071;21;20072;-73
2024/04/17 09:52:52;;;;;;;4.43;1.20;;;;;;;;;;8233191;21;20065;-73
2024/04/17 09:55:56;;;;;;;3.72;1.23;;;;;;;;;;8276957;21;19991;-73
2024/04/17 09:58:59;;;;;;;1.95;1.00;;;;;;;;;;8234783;21;19999;-73
2024/04/17 10:02:16;;;;;;;;;;;;;;;;;;8280891;21;20003;-72
2024/04/17 10:05:18;;;;;;;3.03;1.10;;;;;;;;;;8280950;21;20033;-73
2024/04/17 10:08:21;;;;;;;7.00;2.55;;;;;;;;;;8235336;21;20065;-73
2024/04/17 10:11:26;;;;;;;6.22;2.67;;;;;;;;;;8279841;21;20027;-73
2024/04/17 10:14:29;;;;;;;4.07;3.13;;;;;;;;;;8279108;21;20015;-73
2024/04/17 10:17:32;;;;;;;5.05;2.85;;;;;;;;;;8280896;21;20708;-72
2024/04/17 10:20:38;;;;;;;3.28;1.45;;;;;;;;;;8235903;21;20035;-72
2024/04/17 10:23:41;;;;;;;4.35;2.78;;;;;;;;;;8281147;21;19995;-73
2024/04/17 10:26:49;;;;;;;2.80;1.75;;;;;;;;;;8279770;21;20076;-73
2024/04/17 10:29:51;;;;;;;2.97;2.05;;;;;;;;;;8281631;21;19995;-73
2024/04/17 10:32:54;;;;;;;5.55;4.15;;;;;;;;;;8278145;21;20310;-73
2024/04/17 10:35:59;;;;;;;7.88;3.67;;;;;;;;;;8276180;21;19999;-73
2024/04/17 10:39:02;;;;;;;7.35;1.45;;;;;;;;;;8277737;21;20003;-73
2024/04/17 10:42:05;;;;;;;2.78;0.80;;;;;;;;;;8278819;21;19995;-73
2024/04/17 10:45:09;;;;;;;3.88;1.13;;;;;;;;;;8234173;21;20006;-73
2024/04/17 10:48:15;;;;;;;2.88;0.90;;;;;;;;;;8278084;21;19995;-73
2024/04/17 10:51:20;;;;;;;5.18;2.45;;;;;;;;;;8190327;21;20039;-73
2024/04/17 10:54:22;;;;;;;7.50;3.10;;;;;;;;;;8281281;21;19999;-73
2024/04/17 10:57:28;;;;;;;3.70;1.30;;;;;;;;;;8278330;21;20844;-72
2024/04/17 11:00:31;;;;;;;5.10;2.95;;;;;;;;;;8278349;21;19999;-73
2024/04/17 11:03:34;;;;;;;5.38;2.60;;;;;;;;;;8276907;21;19999;-73
2024/04/17 11:06:36;;;;;;;3.33;2.03;;;;;;;;;;8235553;21;19995;-73
2024/04/17 11:09:48;;;;;;;6.30;2.88;;;;;;;;;;8282900;21;20080;-73
2024/04/17 11:12:51;;;;;;;5.57;3.15;;;;;;;;;;8278567;21;20007;-73
2024/04/17 11:15:53;;;;;;;7.00;2.13;;;;;;;;;;8232717;21;20790;-72
2024/04/17 11:18:56;;;;;;;7.80;1.33;;;;;;;;;;8278066;21;20008;-72
2024/04/17 11:21:59;;;;;;;5.13;1.35;;;;;;;;;;8278749;21;20035;-72
2024/04/17 11:25:04;;;;;;;6.68;3.33;;;;;;;;;;8279174;21;20027;-72
2024/04/17 11:28:14;;;;;;;5.55;2.25;;;;;;;;;;8234444;21;20039;-73
2024/04/17 11:31:20;;;;;;;6.07;3.10;;;;;;;;;;8281591;21;20001;-73
2024/04/17 11:34:25;;;;;;;6.95;1.42;;;;;;;;;;8278443;21;20009;-72
2024/04/17 11:37:27;;;;;;;9.77;1.80;;;;;;;;;;8276458;21;20007;-72
2024/04/17 11:40:31;;;;;;;4.88;1.70;;;;;;;;;;8278160;21;20068;-73
2024/04/17 11:43:34;;;;;;;3.28;1.17;;;;;;;;;;8278594;21;20073;-73
2024/04/17 11:46:39;;;;;;;2.53;1.35;;;;;;;;;;8235272;21;20069;-73
2024/04/17 11:49:42;;;;;;;3.63;1.55;;;;;;;;;;8234026;21;20069;-73
2024/04/17 11:52:45;;;;;;;5.95;1.85;;;;;;;;;;8277557;21;20021;-73
2024/04/17 11:55:48;;;;;;;5.82;1.65;;;;;;;;;;8281801;21;20017;-73
2024/04/17 11:58:53;;;;;;;3.95;1.73;;;;;;;;;;8280785;21;20007;-73
2024/04/17 12:01:56;;;;;;;3.28;2.10;;;;;;;;;;8278364;21;19999;-73
2024/04/17 12:04:59;;;;;;;9.30;3.08;;;;;;;;;;8279760;21;20018;-73
2024/04/17 12:08:02;;;;;;;4.07;2.40;;;;;;;;;;8278077;21;20002;-73
2024/04/17 12:11:04;;;;;;;4.85;1.70;;;;;;;;;;8282696;21;20010;-74
2024/04/17 12:14:07;;;;;;;5.10;2.50;;;;;;;;;;8281383;21;19999;-73
2024/04/17 12:17:12;;;;;;;2.58;1.20;;;;;;;;;;8281154;21;19995;-73
2024/04/17 12:20:14;;;;;;;4.32;1.08;;;;;;;;;;8282023;21;20066;-73
2024/04/17 12:23:20;;;;;;;3.95;1.50;;;;;;;;;;8237662;21;20014;-73
2024/04/17 12:29:44;;;;;;;3.78;2.53;;;;;;;;;;8280112;21;20034;-73
2024/04/17 12:32:47;;;;;;;2.13;1.70;;;;;;;;;;8282715;21;19995;-73
2024/04/17 12:35:50;;;;;;;5.25;1.40;;;;;;;;;;8236924;21;20476;-72
2024/04/17 12:38:53;;;;;;;3.53;2.45;;;;;;;;;;8307493;21;20491;-72
2024/04/17 12:41:55;;;;;;;6.18;4.45;;;;;;;;;;8294195;21;20493;-73
2024/04/17 12:44:58;;;;;;;5.68;1.90;;;;;;;;;;8280530;21;20798;-72
2024/04/17 12:48:00;;;;;;;3.58;2.95;;;;;;;;;;8278624;21;20336;-72
2024/04/17 12:51:03;;;;;;;4.82;1.13;;;;;;;;;;8280704;21;20006;-72
2024/04/17 12:54:06;;;;;;;2.33;1.90;;;;;;;;;;8280977;21;19991;-72
2024/04/17 12:57:09;;;;;;;2.97;1.90;;;;;;;;;;8282236;21;20067;-72
2024/04/17 13:00:12;;;;;;;5.28;2.45;;;;;;;;;;8281248;21;20031;-72
2024/04/17 13:03:14;;;;;;;3.40;3.03;;;;;;;;;;8279331;21;20513;-72
2024/04/17 13:06:17;;;;;;;2.58;1.75;;;;;;;;;;8282886;21;20104;-72
2024/04/17 13:09:19;;;;;;;2.45;1.40;;;;;;;;;;8283283;21;19999;-72
2024/04/17 13:12:22;;;;;;;5.50;1.67;;;;;;;;;;8236912;21;20009;-72
2024/04/17 13:15:25;;;;;;;4.30;1.77;;;;;;;;;;8279671;21;19999;-72
2024/04/17 13:18:31;;;;;;;2.08;1.17;;;;;;;;;;8278828;21;19995;-71
2024/04/17 13:21:34;;;;;;;3.90;1.65;;;;;;;;;;8235985;21;20035;-72
2024/04/17 13:24:37;;;;;;;3.40;2.45;;;;;;;;;;8278969;21;20047;-72
2024/04/17 13:27:39;;;;;;;4.75;1.85;;;;;;;;;;8278656;21;20003;-73
2024/04/17 13:30:42;;;;;;;7.38;1.85;;;;;;;;;;8278378;21;19995;-73
2024/04/17 13:33:45;;;;;;;4.85;1.05;;;;;;;;;;8279353;21;19999;-72
2024/04/17 13:36:47;;;;;;;2.67;1.92;;;;;;;;;;8282291;21;19995;-72
2024/04/17 13:39:51;;;;;;;5.78;1.98;;;;;;;;;;8278543;21;20007;-73
2024/04/17 13:42:53;;;;;;;3.45;1.48;;;;;;;;;;8281749;21;20727;-74
2024/04/17 13:45:57;;;;;;;1.90;1.02;;;;;;;;;;8281183;21;20003;-74
2024/04/17 13:49:00;;;;;;;1.63;0.98;;;;;;;;;;8281498;21;20010;-74
2024/04/17 13:52:03;;;;;;;1.70;0.98;;;;;;;;;;8278717;21;20076;-73
2024/04/17 13:55:06;;;;;;;2.75;1.38;;;;;;;;;;8281084;21;20395;-74
2024/04/17 13:58:08;;;;;;;2.00;1.40;;;;;;;;;;8279425;21;19999;-73
2024/04/17 14:01:11;;;;;;;3.38;2.08;;;;;;;;;;8280674;21;19995;-74
2024/04/17 14:04:14;;;;;;;2.00;1.48;;;;;;;;;;8281028;21;20003;-65
2024/04/17 14:07:16;;;;;;;2.15;1.02;;;;;;;;;;8283205;21;20040;-73
2024/04/17 14:10:21;;;;;;;2.55;1.63;;;;;;;;;;8281553;21;20051;-72
2024/04/17 14:13:25;;;;;;;1.75;0.95;;;;;;;;;;8236364;21;20588;-71
2024/04/17 14:16:28;;;;;;;2.60;1.23;;;;;;;;;;8283874;21;19999;-72
2024/04/17 14:19:31;;;;;;;1.73;1.08;;;;;;;;;;8278917;21;20045;-73
2024/04/17 14:22:34;;;;;;;2.72;2.22;;;;;;;;;;8279390;21;19999;-72
2024/04/17 14:25:36;;;;;;;3.47;2.60;;;;;;;;;;8280332;21;20003;-72
2024/04/17 14:28:39;;;;;;;3.67;2.53;;;;;;;;;;8283936;21;20007;-72
2024/04/17 14:31:41;;;;;;;3.85;2.17;;;;;;;;;;8283464;21;20495;-72
2024/04/17 14:34:44;;;;;;;3.53;2.97;;;;;;;;;;8236231;21;20065;-73
2024/04/17 14:37:47;;;;;;;3.05;1.90;;;;;;;;;;8283708;21;20011;-72
2024/04/17 14:40:53;;;;;;;4.05;1.85;;;;;;;;;;8281096;21;20002;-72
2024/04/17 14:43:55;;;;;;;4.38;3.97;;;;;;;;;;8281316;21;20476;-73
2024/04/17 14:46:59;;;;;;;4.10;1.60;;;;;;;;;;8278164;21;19998;-73
2024/04/17 14:50:01;;;;;;;10.43;3.42;;;;;;;;;;8282095;21;20009;-72
2024/04/17 14:53:04;;;;;;;4.70;1.75;;;;;;;;;;8280098;21;20049;-73
2024/04/17 14:56:07;;;;;;;5.82;1.58;;;;;;;;;;8281995;21;19995;-73
2024/04/17 14:59:10;;;;;;;8.52;1.98;;;;;;;;;;8234859;21;20003;-73
2024/04/17 15:02:13;;;;;;;4.57;3.03;;;;;;;;;;8279994;21;20009;-73
2024/04/17 15:05:20;;;;;;;9.63;5.28;;;;;;;;;;8279098;21;20431;-72
2024/04/17 15:08:23;;;;;;;6.82;3.45;;;;;;;;;;8281501;21;20017;-72
2024/04/17 15:11:25;;;;;;;2.85;1.58;;;;;;;;;;8279723;21;20003;-73
2024/04/17 15:14:28;;;;;;;4.47;3.13;;;;;;;;;;8283313;21;20088;-72
2024/04/17 15:17:30;;;;;;;3.67;2.25;;;;;;;;;;8282483;21;20002;-72
2024/04/17 15:20:34;;;;;;;4.30;3.40;;;;;;;;;;8235221;21;20428;-72
2024/04/17 15:23:40;;;;;;;3.95;1.73;;;;;;;;;;8280373;21;20007;-73
2024/04/17 15:26:43;;;;;;;5.38;3.20;;;;;;;;;;8276029;21;20432;-73
2024/04/17 15:29:45;;;;;;;4.68;2.00;;;;;;;;;;8281714;21;19995;-73
2024/04/17 15:32:48;;;;;;;4.78;2.97;;;;;;;;;;8278873;21;20032;-73
2024/04/17 15:35:51;;;;;;;4.13;2.80;;;;;;;;;;8279879;21;20018;-73
2024/04/17 15:38:56;;;;;;;3.65;2.47;;;;;;;;;;8279260;21;20003;-72
2024/04/17 15:41:59;;;;;;;2.60;1.40;;;;;;;;;;8281793;21;20014;-74
2024/04/17 15:45:02;;;;;;;5.70;2.90;;;;;;;;;;8280214;21;20009;-73
2024/04/17 15:48:05;;;;;;;5.40;2.72;;;;;;;;;;8282482;21;19995;-73
2024/04/17 15:51:09;;;;;;;4.55;2.53;;;;;;;;;;8280447;21;20011;-73
2024/04/17 15:54:12;;;;;;;8.45;5.07;;;;;;;;;;8237637;21;20321;-73
2024/04/17 15:57:15;;;;;;;6.30;2.75;;;;;;;;;;8283553;21;19995;-73
2024/04/17 16:00:18;;;;;;;6.40;4.32;;;;;;;;;;8283510;21;20006;-74
2024/04/17 16:03:21;;;;;;;10.07;6.00;;;;;;;;;;8280235;21;19999;-73
2024/04/17 16:06:24;;;;;;;26.75;14.25;;;;;;;;;;8281904;21;20084;-73
2024/04/17 16:09:26;;;;;;;44.03;26.45;;;;;;;;;;8285485;21;20332;-73
2024/04/17 16:12:30;;;;;;;34.85;25.48;;;;;;;;;;8284069;21;20434;-73
2024/04/17 16:15:33;;;;;;;11.00;8.35;;;;;;;;;;8282588;21;19999;-73
2024/04/17 16:18:38;;;;;;;10.15;7.70;;;;;;;;;;8283463;21;19999;-72
2024/04/17 16:21:41;;;;;;;8.27;5.80;;;;;;;;;;8238317;21;20011;-73
2024/04/17 16:24:43;;;;;;;7.18;4.43;;;;;;;;;;8279315;21;19995;-73
2024/04/17 16:27:46;;;;;;;3.72;2.35;;;;;;;;;;8281475;21;20506;-72
2024/04/17 16:30:49;;;;;;;7.97;4.40;;;;;;;;;;8282309;21;19999;-72
2024/04/17 16:33:53;;;;;;;13.50;6.50;;;;;;;;;;8281770;21;20003;-72
2024/04/17 16:36:55;;;;;;;3.70;3.17;;;;;;;;;;8235535;21;19991;-72
2024/04/17 16:39:58;;;;;;;3.33;1.85;;;;;;;;;;8232702;21;20772;-73
2024/04/17 16:43:01;;;;;;;2.05;1.42;;;;;;;;;;8280730;21;20005;-72
2024/04/17 16:46:08;;;;;;;5.05;2.28;;;;;;;;;;8282453;21;20003;-73
2024/04/17 16:49:12;;;;;;;3.20;2.85;;;;;;;;;;8280893;21;19995;-73
2024/04/17 16:52:14;;;;;;;5.55;2.22;;;;;;;;;;8280123;21;20873;-72
2024/04/17 16:55:17;;;;;;;6.10;3.35;;;;;;;;;;8285121;21;20452;-72
2024/04/17 16:58:19;;;;;;;9.73;4.50;;;;;;;;;;8237147;21;20425;-74
2024/04/17 17:01:22;;;;;;;11.88;5.70;;;;;;;;;;8235752;21;19999;-72
2024/04/17 17:04:25;;;;;;;4.35;2.55;;;;;;;;;;8281451;21;20015;-72
2024/04/17 17:07:28;;;;;;;4.40;3.40;;;;;;;;;;8281383;21;19995;-72
2024/04/17 17:10:31;;;;;;;10.13;6.72;;;;;;;;;;8281440;21;19999;-73
2024/04/17 17:13:34;;;;;;;7.65;3.95;;;;;;;;;;8281400;21;19995;-72
2024/04/17 17:16:37;;;;;;;4.80;2.33;;;;;;;;;;8279621;21;19994;-72
2024/04/17 17:19:40;;;;;;;3.63;1.92;;;;;;;;;;8280350;21;20544;-72
2024/04/17 17:22:43;;;;;;;6.93;4.18;;;;;;;;;;8281523;21;20002;-72
2024/04/17 17:25:48;;;;;;;6.28;4.25;;;;;;;;;;8281352;21;20014;-73
2024/04/17 17:28:51;;;;;;;4.25;2.90;;;;;;;;;;8282690;21;20519;-73
2024/04/17 17:31:54;;;;;;;4.05;2.15;;;;;;;;;;8279084;21;20009;-73
2024/04/17 17:34:57;;;;;;;4.63;4.18;;;;;;;;;;8234816;21;19995;-73
2024/04/17 17:37:59;;;;;;;7.07;2.42;;;;;;;;;;8279594;21;19999;-72
2024/04/17 17:41:19;;;;;;;6.57;3.45;;;;;;;;;;8281150;21;19999;-73
2024/04/17 17:44:22;;;;;;;5.88;3.63;;;;;;;;;;8278959;21;19995;-73
2024/04/17 17:47:24;;;;;;;7.15;5.82;;;;;;;;;;8233940;21;20003;-73
2024/04/17 17:50:27;;;;;;;5.32;3.80;;;;;;;;;;8234736;21;19999;-73
2024/04/17 17:53:31;;;;;;;8.85;4.53;;;;;;;;;;8276653;21;20003;-74
2024/04/17 17:56:34;;;;;;;5.63;3.42;;;;;;;;;;8279112;21;20093;-73
2024/04/17 17:59:38;;;;;;;8.07;4.38;;;;;;;;;;8234009;21;20010;-73
2024/04/17 18:02:41;;;;;;;5.65;3.17;;;;;;;;;;8277413;21;20039;-73
2024/04/17 18:05:53;;;;;;;7.47;4.25;;;;;;;;;;8278722;21;19999;-73
2024/04/17 18:08:57;;;;;;;7.05;3.33;;;;;;;;;;8278410;21;19995;-72
2024/04/17 18:12:02;;;;;;;14.63;8.57;;;;;;;;;;8234219;21;20003;-72
2024/04/17 18:15:05;;;;;;;6.70;3.95;;;;;;;;;;8233610;21;20395;-72
2024/04/17 18:18:08;;;;;;;4.80;2.65;;;;;;;;;;8278243;21;20030;-72